aviador You're here:

K2G4 Decoded Metar

GARRETT CO in MD, USA
Report Time2018-04-24 14:00:00
UTC Time2018-04-24 14:07:18
Flight Rules lifr LIFR
Wind120° at 19 Gusting to 26 kt
W.Rank120° ranks 10
Current wind is above 120° avg. (9.7)
Visibility4828 m
Phenomena:N/A
Clouds:Overcast 003 Hf
Ceiling300 ft
Temp05°C (ISA -4)
Dew Point05°C (100% RH)
AAT-3.0°C
QNH1020 hPa
Density Alt2,326 ft
Elevation2,933 ft
Report Wrong Elevation
Raw Report
K2G4 241400Z AUTO 12019G26KT 3SM OVC003 05/05 A3013 RMK AO1=

Extra information for K2G4:More info

Metar Taf Metar & Taf Last 4 Metars F.Rules Stats Wind Profile Meteogram Temp Stats Airport Information Weather charts Add Link Nearby VenuesMetar ALERT Operation Metar Decoded Social comments

AIRNAV info for K2G4